createdAt,value
2019-06-26T00:00:10.332Z,101928.59
2019-06-26T00:02:40.518Z,101933.75
2019-06-26T00:05:10.131Z,101941.31
2019-06-26T00:07:39.326Z,101938.31
2019-06-26T00:10:08.731Z,101940.97
2019-06-26T00:12:37.947Z,101941.10
2019-06-26T00:15:08.296Z,101946.53
2019-06-26T00:17:37.580Z,101944.95
2019-06-26T00:20:08.211Z,101949.55
2019-06-26T00:22:37.413Z,101951.81
2019-06-26T00:25:07.668Z,101950.11
2019-06-26T00:27:36.867Z,101939.31
2019-06-26T00:30:07.462Z,101934.27
2019-06-26T00:32:36.607Z,101927.30
2019-06-26T00:35:06.640Z,101936.02
2019-06-26T00:37:35.923Z,101940.44
2019-06-26T00:40:09.252Z,101944.19
2019-06-26T00:42:38.440Z,101942.66
2019-06-26T00:45:07.815Z,101944.00
2019-06-26T00:47:36.997Z,101942.28
2019-06-26T00:50:08.635Z,101942.14
2019-06-26T00:52:38.081Z,101939.39
2019-06-26T00:55:07.509Z,101942.79
2019-06-26T00:57:36.954Z,101948.42
2019-06-26T01:00:08.638Z,101954.11
2019-06-26T01:02:38.526Z,101950.17
2019-06-26T01:05:09.921Z,101956.58
2019-06-26T01:07:39.118Z,101955.50
2019-06-26T01:10:10.454Z,101960.66
2019-06-26T01:12:39.640Z,101965.04
2019-06-26T01:15:10.366Z,101972.31
2019-06-26T01:17:39.650Z,101968.59
2019-06-26T01:20:09.271Z,101972.53
2019-06-26T01:22:38.459Z,101977.92
2019-06-26T01:25:07.935Z,101974.98
2019-06-26T01:27:37.124Z,101979.31
2019-06-26T01:30:07.461Z,101979.91
2019-06-26T01:32:36.711Z,101982.00
2019-06-26T01:35:07.334Z,101976.89
2019-06-26T01:37:36.523Z,101979.69
2019-06-26T01:40:09.331Z,101984.06
2019-06-26T01:42:38.498Z,101983.56
2019-06-26T01:45:08.329Z,101993.45
2019-06-26T01:47:37.857Z,101988.33
2019-06-26T01:50:08.606Z,101987.98
2019-06-26T01:52:37.780Z,101987.73
2019-06-26T01:55:07.935Z,101990.98
2019-06-26T01:57:37.123Z,101993.66
2019-06-26T02:00:08.598Z,102000.53
2019-06-26T02:02:37.851Z,101990.70
2019-06-26T02:05:08.204Z,102001.52
2019-06-26T02:07:37.459Z,102007.98
2019-06-26T02:10:07.980Z,102005.94
2019-06-26T02:12:37.301Z,102001.88
2019-06-26T02:15:08.333Z,102015.16
2019-06-26T02:17:37.517Z,102018.38
2019-06-26T02:20:08.362Z,102008.20
2019-06-26T02:22:37.556Z,102015.47
2019-06-26T02:25:07.393Z,102016.16
2019-06-26T02:27:36.556Z,102008.66
2019-06-26T02:30:07.711Z,102012.45
2019-06-26T02:32:37.183Z,102017.59
2019-06-26T02:35:09.615Z,102018.95
2019-06-26T02:37:38.510Z,102025.45
2019-06-26T02:40:08.717Z,102020.85
2019-06-26T02:42:37.910Z,102026.92
2019-06-26T02:45:07.548Z,102035.19
2019-06-26T02:47:36.747Z,102037.73
2019-06-26T02:50:07.561Z,102038.97
2019-06-26T02:52:36.753Z,102045.92
2019-06-26T02:55:06.877Z,102060.46
2019-06-26T02:57:36.132Z,102062.69
2019-06-26T03:00:06.597Z,102071.73
2019-06-26T03:02:35.834Z,102066.86
2019-06-26T03:05:06.970Z,102071.70
2019-06-26T03:07:36.224Z,102072.05
2019-06-26T03:10:09.130Z,102076.52
2019-06-26T03:12:38.340Z,102066.81
2019-06-26T03:15:09.638Z,102070.43
2019-06-26T03:17:54.325Z,102067.17
2019-06-26T03:20:10.586Z,102075.42
2019-06-26T03:22:39.779Z,102089.06
2019-06-26T03:25:10.645Z,102091.81
2019-06-26T03:27:39.836Z,102090.95
2019-06-26T03:30:09.467Z,102082.59
2019-06-26T03:32:38.657Z,102090.06
2019-06-26T03:35:07.864Z,102085.22
2019-06-26T03:37:37.049Z,102087.42
2019-06-26T03:40:07.401Z,102096.52
2019-06-26T03:42:36.731Z,102104.78
2019-06-26T03:45:24.139Z,102097.63
2019-06-26T03:47:38.610Z,102106.38
2019-06-26T03:50:07.948Z,102097.84
2019-06-26T03:52:37.145Z,102101.28
2019-06-26T03:55:06.682Z,102101.68
2019-06-26T03:57:35.889Z,102103.23
2019-06-26T04:00:09.592Z,102116.22
2019-06-26T04:02:38.844Z,102118.83
2019-06-26T04:05:08.486Z,102122.22
2019-06-26T04:07:37.669Z,102118.88
2019-06-26T04:10:08.406Z,102113.41
2019-06-26T04:12:37.660Z,102119.13
2019-06-26T04:15:09.966Z,102124.67
2019-06-26T04:17:39.192Z,102124.80
2019-06-26T04:20:09.222Z,102135.69
2019-06-26T04:22:38.424Z,102136.01
2019-06-26T04:25:08.156Z,102151.34
2019-06-26T04:27:37.423Z,102152.96
2019-06-26T04:30:07.732Z,102151.28
2019-06-26T04:32:37.870Z,102152.45
2019-06-26T04:35:07.452Z,102156.16
2019-06-26T04:37:36.675Z,102155.40
2019-06-26T04:40:07.668Z,102159.20
2019-06-26T04:42:36.895Z,102160.74
2019-06-26T04:45:07.408Z,102164.29
2019-06-26T04:47:36.987Z,102156.41
2019-06-26T04:50:07.813Z,102154.91
2019-06-26T04:52:36.995Z,102157.77
2019-06-26T04:55:09.649Z,102160.92
2019-06-26T04:57:38.837Z,102177.88
2019-06-26T05:00:09.058Z,102190.86
2019-06-26T05:02:38.271Z,102194.61
2019-06-26T05:05:07.629Z,102204.50
2019-06-26T05:07:36.776Z,102201.54
2019-06-26T05:10:09.049Z,102205.95
2019-06-26T05:12:38.237Z,102209.06
2019-06-26T05:15:08.191Z,102201.16
2019-06-26T05:17:37.457Z,102208.48
2019-06-26T05:20:08.038Z,102197.27
2019-06-26T05:22:37.304Z,102196.16
2019-06-26T05:25:09.700Z,102200.63
2019-06-26T05:27:39.865Z,102207.20
2019-06-26T05:30:11.396Z,102201.94
2019-06-26T05:32:40.600Z,102217.06
2019-06-26T05:35:11.193Z,102208.70
2019-06-26T05:37:40.443Z,102206.10
2019-06-26T05:40:17.627Z,102213.86
2019-06-26T05:42:46.853Z,102222.33
2019-06-26T05:45:16.373Z,102227.37
2019-06-26T05:47:45.556Z,102224.09
2019-06-26T05:50:15.601Z,102229.29
2019-06-26T05:52:44.766Z,102225.31
2019-06-26T05:55:14.417Z,102221.97
2019-06-26T05:57:48.459Z,102226.34
2019-06-26T06:00:18.018Z,102227.23
2019-06-26T06:02:47.205Z,102230.48
2019-06-26T06:05:17.128Z,102243.36
2019-06-26T06:07:55.284Z,102247.45
2019-06-26T06:10:24.454Z,102256.31
2019-06-26T06:12:57.710Z,102257.36
2019-06-26T06:15:45.913Z,102256.09
2019-06-26T06:18:16.065Z,102261.84
2019-06-26T06:20:46.254Z,102257.06
2019-06-26T06:23:15.505Z,102270.58
2019-06-26T06:25:44.706Z,102270.37
2019-06-26T06:28:13.927Z,102256.44
2019-06-26T06:30:43.106Z,102259.23
2019-06-26T06:33:12.310Z,102266.71
2019-06-26T06:35:41.519Z,102257.42
2019-06-26T06:38:11.683Z,102268.30
2019-06-26T06:40:40.876Z,102286.61
2019-06-26T06:43:10.071Z,102292.48
2019-06-26T06:45:39.270Z,102297.42
2019-06-26T06:48:08.456Z,102288.48
2019-06-26T06:50:37.753Z,102292.10
2019-06-26T06:53:06.948Z,102305.81
2019-06-26T06:55:36.121Z,102308.97
2019-06-26T06:58:05.391Z,102313.94
2019-06-26T07:00:34.600Z,102314.26
2019-06-26T07:03:03.841Z,102316.44
2019-06-26T07:05:33.029Z,102324.86
2019-06-26T07:08:02.209Z,102337.17
2019-06-26T07:10:31.407Z,102348.43
2019-06-26T07:13:00.913Z,102354.86
2019-06-26T07:15:30.115Z,102350.25
2019-06-26T07:18:00.324Z,102360.55
2019-06-26T07:20:29.535Z,102362.77
2019-06-26T07:22:58.893Z,102357.62
2019-06-26T07:25:28.084Z,102366.06
2019-06-26T07:27:57.321Z,102375.48
2019-06-26T07:30:26.633Z,102372.77
2019-06-26T07:32:55.852Z,102384.55
2019-06-26T07:35:25.057Z,102378.81
2019-06-26T07:37:54.231Z,102381.93
2019-06-26T07:40:23.604Z,102388.27
2019-06-26T07:42:52.955Z,102393.95
2019-06-26T07:45:24.133Z,102396.30
2019-06-26T07:47:53.072Z,102395.71
2019-06-26T07:50:22.249Z,102394.34
2019-06-26T07:52:51.602Z,102391.72
2019-06-26T07:55:21.989Z,102382.61
2019-06-26T07:57:51.251Z,102381.33
2019-06-26T08:00:20.813Z,102393.49
2019-06-26T08:02:49.987Z,102404.36
2019-06-26T08:05:19.290Z,102408.44
2019-06-26T08:07:48.477Z,102407.32
2019-06-26T08:10:18.006Z,102405.72
2019-06-26T08:12:47.197Z,102410.00
2019-06-26T08:15:18.127Z,102412.02
2019-06-26T08:18:00.061Z,102395.77
2019-06-26T08:20:19.692Z,102407.13
2019-06-26T08:22:48.867Z,102419.97
2019-06-26T08:25:24.842Z,102400.92
2019-06-26T08:27:54.034Z,102401.81
2019-06-26T08:30:23.582Z,102415.16
2019-06-26T08:32:58.700Z,102404.56
2019-06-26T08:35:27.918Z,102406.81
2019-06-26T08:38:09.888Z,102404.98
2019-06-26T08:40:29.935Z,102426.34
2019-06-26T08:42:59.143Z,102415.30
2019-06-26T08:45:28.316Z,102402.44
2019-06-26T08:47:57.574Z,102407.98
2019-06-26T08:50:27.692Z,102408.61
2019-06-26T08:52:56.951Z,102403.84
2019-06-26T08:55:28.136Z,102422.91
2019-06-26T08:57:57.328Z,102406.60
2019-06-26T09:00:26.631Z,102409.75
2019-06-26T09:02:55.806Z,102409.45
2019-06-26T09:05:25.939Z,102415.50
2019-06-26T09:07:55.187Z,102416.86
2019-06-26T09:10:24.465Z,102417.66
2019-06-26T09:12:53.741Z,102418.98
2019-06-26T09:15:22.942Z,102425.00
2019-06-26T09:17:52.209Z,102416.44
2019-06-26T09:20:39.427Z,102423.57
2019-06-26T09:23:09.714Z,102419.22
2019-06-26T09:25:38.991Z,102430.12
2019-06-26T09:28:26.549Z,102422.27
2019-06-26T09:30:55.776Z,102429.06
2019-06-26T09:33:26.064Z,102435.47
2019-06-26T09:35:55.257Z,102447.77
2019-06-26T09:38:24.442Z,102465.59
2019-06-26T09:40:59.616Z,102450.95
2019-06-26T09:43:28.835Z,102442.11
2019-06-26T09:45:59.099Z,102443.34
2019-06-26T09:48:28.286Z,102440.34
2019-06-26T09:50:57.488Z,102445.28
2019-06-26T09:53:26.694Z,102456.13
2019-06-26T09:55:55.905Z,102452.12
2019-06-26T09:58:25.095Z,102456.66
2019-06-26T10:01:03.047Z,102468.73
2019-06-26T10:03:33.213Z,102458.28
2019-06-26T10:06:05.109Z,102464.99
2019-06-26T10:08:34.262Z,102458.08
2019-06-26T10:11:03.451Z,102463.20
2019-06-26T10:13:32.647Z,102449.67
2019-06-26T10:16:01.841Z,102480.80
2019-06-26T10:18:31.996Z,102481.59
2019-06-26T10:21:01.325Z,102482.14
2019-06-26T10:23:32.536Z,102475.18
2019-06-26T10:26:01.718Z,102480.22
2019-06-26T10:28:30.910Z,102483.87
2019-06-26T10:31:00.151Z,102494.23
2019-06-26T10:33:29.346Z,102495.08
2019-06-26T10:35:58.519Z,102498.09
2019-06-26T10:38:27.746Z,102496.19
2019-06-26T10:40:56.929Z,102501.50
2019-06-26T10:43:26.160Z,102507.83
2019-06-26T10:45:55.351Z,102509.67
2019-06-26T10:48:24.548Z,102507.70
2019-06-26T10:50:58.474Z,102509.13
2019-06-26T10:53:24.615Z,102505.34
2019-06-26T10:55:53.818Z,102507.20
2019-06-26T10:58:23.097Z,102503.88
2019-06-26T11:00:52.313Z,102504.47
2019-06-26T11:03:21.527Z,102497.27
2019-06-26T11:05:52.691Z,102490.63
2019-06-26T11:08:21.900Z,102495.09
2019-06-26T11:10:51.167Z,102506.91
2019-06-26T11:13:20.354Z,102512.23
2019-06-26T11:15:49.541Z,102517.86
2019-06-26T11:18:18.922Z,102510.34
2019-06-26T11:20:48.119Z,102492.53
2019-06-26T11:23:17.335Z,102492.44
2019-06-26T11:25:46.503Z,102502.10
2019-06-26T11:28:15.701Z,102501.84
2019-06-26T11:30:44.961Z,102515.40
2019-06-26T11:33:14.150Z,102520.84
2019-06-26T11:35:43.372Z,102516.33
2019-06-26T11:38:12.562Z,102517.78
2019-06-26T11:40:41.745Z,102511.70
2019-06-26T11:43:10.936Z,102508.16
2019-06-26T11:45:44.165Z,102515.73
2019-06-26T11:48:13.420Z,102520.73
2019-06-26T11:50:42.631Z,102521.40
2019-06-26T11:53:11.855Z,102524.83
2019-06-26T11:55:41.059Z,102526.81
2019-06-26T11:58:10.249Z,102535.30
2019-06-26T12:00:41.688Z,102535.20
2019-06-26T12:03:13.354Z,102536.02
2019-06-26T12:05:42.338Z,102536.81
2019-06-26T12:08:11.548Z,102550.01
2019-06-26T12:10:40.715Z,102552.07
2019-06-26T12:13:09.906Z,102549.08
2019-06-26T12:15:40.083Z,102539.28
2019-06-26T12:18:09.345Z,102535.86
2019-06-26T12:20:38.544Z,102522.34
2019-06-26T12:23:07.730Z,102533.95
2019-06-26T12:25:36.901Z,102540.06
2019-06-26T12:28:06.372Z,102544.66
2019-06-26T12:30:35.581Z,102548.26
2019-06-26T12:33:04.835Z,102553.00
2019-06-26T12:35:34.036Z,102542.49
2019-06-26T12:38:03.277Z,102546.89
2019-06-26T12:40:32.449Z,102548.76
2019-06-26T12:43:01.751Z,102538.50
2019-06-26T12:45:32.927Z,102539.91
2019-06-26T12:48:02.123Z,102528.30
2019-06-26T12:50:35.975Z,102527.28
2019-06-26T12:53:02.198Z,102530.32
2019-06-26T12:55:33.058Z,102531.02
2019-06-26T12:58:13.663Z,102529.50
2019-06-26T13:00:33.420Z,102527.27
2019-06-26T13:03:02.606Z,102521.53
2019-06-26T13:05:31.864Z,102517.63
2019-06-26T13:08:09.839Z,102515.58
2019-06-26T13:10:48.938Z,102508.21
2019-06-26T13:13:10.000Z,102504.70
2019-06-26T13:15:40.254Z,102509.13
2019-06-26T13:18:09.484Z,102508.41
2019-06-26T13:20:52.094Z,102507.22
2019-06-26T13:23:09.521Z,102501.30
2019-06-26T13:25:38.706Z,102507.83
2019-06-26T13:28:08.232Z,102501.14
2019-06-26T13:30:39.779Z,102506.61
2019-06-26T13:33:09.013Z,102507.58
2019-06-26T13:35:38.260Z,102497.41
2019-06-26T13:38:07.442Z,102500.17
2019-06-26T13:40:36.647Z,102498.05
2019-06-26T13:43:05.895Z,102485.30
2019-06-26T13:45:35.098Z,102488.42
2019-06-26T13:48:04.407Z,102474.13
2019-06-26T13:50:34.601Z,102478.47
2019-06-26T13:53:03.867Z,102477.14
2019-06-26T13:55:33.058Z,102478.81
2019-06-26T13:58:02.245Z,102480.31
2019-06-26T14:00:31.426Z,102481.66
2019-06-26T14:03:00.667Z,102484.13
2019-06-26T14:05:29.881Z,102494.70
2019-06-26T14:08:00.018Z,102484.47
2019-06-26T14:10:29.212Z,102492.27
2019-06-26T14:12:58.381Z,102494.78
2019-06-26T14:15:27.630Z,102500.38
2019-06-26T14:17:56.851Z,102483.46
2019-06-26T14:20:26.122Z,102492.83
2019-06-26T14:22:55.309Z,102482.44
2019-06-26T14:25:24.508Z,102491.49
2019-06-26T14:27:53.701Z,102494.89
2019-06-26T14:30:23.187Z,102503.59
2019-06-26T14:32:52.394Z,102483.02
2019-06-26T14:35:21.589Z,102503.78
2019-06-26T14:37:50.886Z,102515.63
2019-06-26T14:40:20.480Z,102505.34
2019-06-26T14:42:50.698Z,102499.38
2019-06-26T14:45:20.031Z,102512.81
2019-06-26T14:47:49.229Z,102520.14
2019-06-26T14:50:19.036Z,102521.87
2019-06-26T14:52:48.223Z,102515.72
2019-06-26T14:55:17.623Z,102516.47
2019-06-26T14:57:46.817Z,102518.36
2019-06-26T15:00:16.541Z,102524.72
2019-06-26T15:02:46.070Z,102519.39
2019-06-26T15:05:15.495Z,102506.34
2019-06-26T15:07:44.787Z,102509.77
2019-06-26T15:10:14.457Z,102497.59
2019-06-26T15:12:43.697Z,102506.56
2019-06-26T15:15:13.035Z,102510.32
2019-06-26T15:17:42.290Z,102508.58
2019-06-26T15:20:11.849Z,102505.98
2019-06-26T15:22:41.090Z,102512.28
2019-06-26T15:25:10.990Z,102511.20
2019-06-26T15:27:40.183Z,102527.53
2019-06-26T15:30:09.707Z,102507.44
2019-06-26T15:32:39.059Z,102503.34
2019-06-26T15:35:08.522Z,102505.08
2019-06-26T15:37:37.709Z,102490.69
2019-06-26T15:40:07.769Z,102504.23
2019-06-26T15:42:36.939Z,102512.84
2019-06-26T15:45:07.210Z,102511.80
2019-06-26T15:47:36.501Z,102518.36
2019-06-26T15:50:10.478Z,102505.56
2019-06-26T15:52:38.090Z,102524.58
2019-06-26T15:55:07.613Z,102509.36
2019-06-26T15:57:36.921Z,102520.56
2019-06-26T16:00:24.464Z,102516.77
2019-06-26T16:02:53.698Z,102525.22
2019-06-26T16:05:22.872Z,102510.34
2019-06-26T16:07:52.085Z,102520.55
2019-06-26T16:10:22.257Z,102509.95
2019-06-26T16:12:51.426Z,102520.84
2019-06-26T16:15:20.726Z,102507.44
2019-06-26T16:17:57.085Z,102506.78
2019-06-26T16:20:26.259Z,102500.53
2019-06-26T16:22:55.487Z,102501.14
2019-06-26T16:25:24.630Z,102515.41
2019-06-26T16:28:04.802Z,102505.49
2019-06-26T16:30:24.764Z,102504.48
2019-06-26T16:32:56.821Z,102507.50
2019-06-26T16:35:24.885Z,102512.83
2019-06-26T16:37:54.083Z,102500.54
2019-06-26T16:40:23.276Z,102502.15
2019-06-26T16:42:52.477Z,102499.74
2019-06-26T16:45:21.674Z,102507.86
2019-06-26T16:47:50.869Z,102505.06
2019-06-26T16:50:20.467Z,102513.40
2019-06-26T16:52:50.327Z,102513.36
2019-06-26T16:55:19.518Z,102504.55
2019-06-26T16:57:48.749Z,102506.86
2019-06-26T17:00:19.277Z,102501.86
2019-06-26T17:02:49.401Z,102509.25
2019-06-26T17:05:18.706Z,102502.94
2019-06-26T17:07:48.884Z,102497.05
2019-06-26T17:10:18.396Z,102508.53
2019-06-26T17:12:47.585Z,102495.77
2019-06-26T17:15:17.234Z,102506.67
2019-06-26T17:17:46.446Z,102499.04
2019-06-26T17:20:15.940Z,102504.00
2019-06-26T17:22:45.237Z,102497.88
2019-06-26T17:25:16.453Z,102496.38
2019-06-26T17:27:45.675Z,102499.91
2019-06-26T17:30:15.204Z,102494.69
2019-06-26T17:32:44.390Z,102498.39
2019-06-26T17:35:13.946Z,102510.45
2019-06-26T17:37:43.122Z,102498.72
2019-06-26T17:40:12.518Z,102513.94
2019-06-26T17:42:41.710Z,102512.47
2019-06-26T17:45:11.244Z,102520.81
2019-06-26T17:47:40.445Z,102506.41
2019-06-26T17:50:09.880Z,102515.95
2019-06-26T17:52:39.157Z,102518.13
2019-06-26T17:55:10.915Z,102523.80
2019-06-26T17:57:42.146Z,102513.84
2019-06-26T18:00:13.164Z,102512.47
2019-06-26T18:02:42.402Z,102516.47
2019-06-26T18:05:11.821Z,102514.16
2019-06-26T18:07:41.071Z,102520.52
2019-06-26T18:10:10.589Z,102514.87
2019-06-26T18:12:39.772Z,102520.06
2019-06-26T18:15:09.397Z,102511.28
2019-06-26T18:17:38.581Z,102506.98
2019-06-26T18:20:08.850Z,102505.56
2019-06-26T18:22:38.030Z,102513.45
2019-06-26T18:25:07.698Z,102514.71
2019-06-26T18:27:55.035Z,102518.80
2019-06-26T18:30:24.215Z,102526.44
2019-06-26T18:32:53.475Z,102513.64
2019-06-26T18:35:22.670Z,102522.19
2019-06-26T18:37:51.872Z,102524.61
2019-06-26T18:40:21.151Z,102515.37
2019-06-26T18:42:50.344Z,102528.56
2019-06-26T18:45:19.538Z,102528.95
2019-06-26T18:47:48.832Z,102530.20
2019-06-26T18:50:18.084Z,102545.44
2019-06-26T18:52:47.258Z,102532.05
2019-06-26T18:55:16.592Z,102534.27
2019-06-26T18:57:45.773Z,102538.09
2019-06-26T19:00:15.352Z,102549.80
2019-06-26T19:02:44.546Z,102530.75
2019-06-26T19:05:14.161Z,102529.55
2019-06-26T19:07:43.432Z,102531.98
2019-06-26T19:10:12.936Z,102539.23
2019-06-26T19:12:42.142Z,102535.63
2019-06-26T19:15:11.767Z,102538.06
2019-06-26T19:17:42.560Z,102546.27
2019-06-26T19:20:12.408Z,102549.69
2019-06-26T19:22:41.628Z,102556.70
2019-06-26T19:25:11.247Z,102559.46
2019-06-26T19:27:40.693Z,102566.88
2019-06-26T19:30:10.543Z,102567.89
2019-06-26T19:32:39.909Z,102562.16
2019-06-26T19:35:18.499Z,102570.99
2019-06-26T19:37:40.601Z,102573.72
2019-06-26T19:40:11.917Z,102578.11
2019-06-26T19:42:41.995Z,102591.41
2019-06-26T19:45:12.429Z,102589.18
2019-06-26T19:47:41.591Z,102585.28
2019-06-26T19:50:12.246Z,102603.86
2019-06-26T19:52:41.414Z,102605.91
2019-06-26T19:55:11.860Z,102600.65
2019-06-26T19:57:41.091Z,102605.81
2019-06-26T20:00:14.072Z,102601.83
2019-06-26T20:02:43.281Z,102613.61
2019-06-26T20:05:15.137Z,102614.05
2019-06-26T20:07:44.373Z,102625.83
2019-06-26T20:10:14.037Z,102626.98
2019-06-26T20:12:43.225Z,102629.28
2019-06-26T20:15:12.657Z,102638.42
2019-06-26T20:17:41.849Z,102631.88
2019-06-26T20:20:11.458Z,102642.34
2019-06-26T20:22:40.567Z,102658.11
2019-06-26T20:25:10.405Z,102638.88
2019-06-26T20:27:39.930Z,102659.23
2019-06-26T20:30:10.286Z,102649.43
2019-06-26T20:32:39.529Z,102646.45
2019-06-26T20:35:09.325Z,102645.15
2019-06-26T20:37:39.444Z,102648.56
2019-06-26T20:40:08.974Z,102646.25
2019-06-26T20:42:38.159Z,102652.81
2019-06-26T20:45:08.096Z,102659.45
2019-06-26T20:47:37.646Z,102654.17
2019-06-26T20:50:07.688Z,102653.31
2019-06-26T20:52:36.917Z,102656.03
2019-06-26T20:55:09.182Z,102655.01
2019-06-26T20:57:38.262Z,102664.59
2019-06-26T21:00:08.831Z,102662.30
2019-06-26T21:02:38.047Z,102658.09
2019-06-26T21:05:08.231Z,102651.95
2019-06-26T21:07:37.421Z,102666.86
2019-06-26T21:10:07.315Z,102657.27
2019-06-26T21:12:36.590Z,102668.99
2019-06-26T21:15:07.233Z,102664.22
2019-06-26T21:17:36.801Z,102669.48
2019-06-26T21:20:07.693Z,102658.36
2019-06-26T21:22:36.906Z,102653.30
2019-06-26T21:25:18.514Z,102651.00
2019-06-26T21:27:39.909Z,102656.54
2019-06-26T21:30:09.864Z,102656.06
2019-06-26T21:32:39.199Z,102660.76
2019-06-26T21:35:09.369Z,102662.64
2019-06-26T21:37:38.567Z,102659.91
2019-06-26T21:40:07.982Z,102663.60
2019-06-26T21:42:37.137Z,102650.27
2019-06-26T21:45:06.637Z,102655.27
2019-06-26T21:47:35.819Z,102659.45
2019-06-26T21:50:06.274Z,102660.75
2019-06-26T21:52:35.462Z,102658.33
2019-06-26T21:55:06.042Z,102664.96
2019-06-26T21:57:35.275Z,102673.89
2019-06-26T22:00:06.795Z,102679.05
2019-06-26T22:02:36.057Z,102669.53
2019-06-26T22:05:07.266Z,102669.55
2019-06-26T22:07:36.514Z,102674.39
2019-06-26T22:10:07.535Z,102675.11
2019-06-26T22:12:36.719Z,102692.34
2019-06-26T22:15:07.046Z,102674.21
2019-06-26T22:17:36.215Z,102677.50
2019-06-26T22:20:12.170Z,102677.41
2019-06-26T22:22:38.716Z,102678.47
2019-06-26T22:25:08.623Z,102682.22
2019-06-26T22:27:38.042Z,102687.90
2019-06-26T22:30:08.598Z,102684.91
2019-06-26T22:32:37.856Z,102682.70
2019-06-26T22:35:07.410Z,102679.91
2019-06-26T22:37:36.596Z,102678.69
2019-06-26T22:40:06.917Z,102672.81
2019-06-26T22:42:36.110Z,102676.61
2019-06-26T22:45:06.048Z,102675.97
2019-06-26T22:47:35.242Z,102672.59
2019-06-26T22:50:06.704Z,102672.48
2019-06-26T22:52:35.901Z,102674.96
2019-06-26T22:55:06.845Z,102682.55
2019-06-26T22:57:36.106Z,102682.09
2019-06-26T23:00:07.900Z,102679.05
2019-06-26T23:02:37.115Z,102675.13
2019-06-26T23:05:07.242Z,102679.52
2019-06-26T23:07:36.439Z,102680.23
2019-06-26T23:10:07.242Z,102684.84
2019-06-26T23:12:36.431Z,102692.19
2019-06-26T23:15:09.842Z,102684.39
2019-06-26T23:17:39.094Z,102688.47
2019-06-26T23:20:08.716Z,102680.73
2019-06-26T23:22:37.918Z,102679.03
2019-06-26T23:25:07.457Z,102687.39
2019-06-26T23:27:36.652Z,102679.74
2019-06-26T23:30:17.857Z,102683.91
2019-06-26T23:32:47.624Z,102687.89
2019-06-26T23:35:16.888Z,102686.61
2019-06-26T23:37:46.140Z,102686.35
2019-06-26T23:40:15.500Z,102688.84
2019-06-26T23:42:44.683Z,102689.16
2019-06-26T23:45:14.035Z,102687.90
2019-06-26T23:47:43.230Z,102683.73
2019-06-26T23:50:12.991Z,102689.24
2019-06-26T23:52:42.151Z,102688.63
2019-06-26T23:55:11.424Z,102688.77
2019-06-26T23:57:57.614Z,102689.32
